Cove Fort, Utah
Current Conditions -  °F | °C
As of 8:52 PM on Sunday 25 Jan 2015 (Local Time) from KMLF Reporting Station
Clear Clear  
Wind Chill: 29°   Ceiling: Unl
Heat Index: 33°   Visibility: 10mi
Dew Point: 27°   Wind: 5mph
Humidity: 78%   Direction: 30°NNE
Pressure: 30.38"   Gusts: NA
Location:  38.344°N, 112.579°W
Report Text: KMLF 260352Z AUTO 03004KT 10SM CLR 01/M03 A3038 RMK AO2 SLP300 T00061028 TSNO $
Loading
Personal Weather Stations






























Interactive Weather Map New forecast layout! Learn more

10-Day Weather Forecast

Advertisements
Track Severe Weather on mobile